sensor_id;sensor_type;location;lat;lon;timestamp;pressure;altitude;pressure_sealevel;temperature;humidity
10606;BME280;5350;42.698;23.148;2022-09-01T00:00:54;93509.38;;;16.08;100.00
10606;BME280;5350;42.698;23.148;2022-09-01T00:03:21;93504.53;;;16.10;100.00
10606;BME280;5350;42.698;23.148;2022-09-01T00:05:48;93504.19;;;15.91;100.00
10606;BME280;5350;42.698;23.148;2022-09-01T00:08:21;93506.72;;;15.87;100.00
10606;BME280;5350;42.698;23.148;2022-09-01T00:10:49;93503.47;;;15.82;100.00
10606;BME280;5350;42.698;23.148;2022-09-01T00:13:16;93504.44;;;15.77;100.00
10606;BME280;5350;42.698;23.148;2022-09-01T00:15:42;93510.66;;;15.61;100.00
10606;BME280;5350;42.698;23.148;2022-09-01T00:18:09;93512.34;;;15.65;100.00
10606;BME280;5350;42.698;23.148;2022-09-01T00:20:35;93515.78;;;15.66;100.00
10606;BME280;5350;42.698;23.148;2022-09-01T00:23:02;93508.91;;;15.65;100.00
10606;BME280;5350;42.698;23.148;2022-09-01T00:25:28;93503.31;;;15.66;100.00
10606;BME280;5350;42.698;23.148;2022-09-01T00:27:56;93502.50;;;15.66;100.00
10606;BME280;5350;42.698;23.148;2022-09-01T00:30:24;93511.66;;;15.77;100.00
10606;BME280;5350;42.698;23.148;2022-09-01T00:32:51;93517.97;;;15.84;100.00
10606;BME280;5350;42.698;23.148;2022-09-01T00:35:18;93519.41;;;15.82;100.00
10606;BME280;5350;42.698;23.148;2022-09-01T00:37:45;93519.78;;;15.72;100.00
10606;BME280;5350;42.698;23.148;2022-09-01T00:40:12;93526.09;;;15.59;100.00
10606;BME280;5350;42.698;23.148;2022-09-01T00:42:39;93516.16;;;15.56;100.00
10606;BME280;5350;42.698;23.148;2022-09-01T00:45:08;93514.00;;;15.49;100.00
10606;BME280;5350;42.698;23.148;2022-09-01T00:47:35;93509.78;;;15.48;100.00
10606;BME280;5350;42.698;23.148;2022-09-01T00:50:02;93511.47;;;15.53;100.00
10606;BME280;5350;42.698;23.148;2022-09-01T00:52:30;93510.59;;;15.40;100.00
10606;BME280;5350;42.698;23.148;2022-09-01T00:54:58;93517.00;;;15.39;100.00
10606;BME280;5350;42.698;23.148;2022-09-01T00:57:25;93522.47;;;15.43;100.00
10606;BME280;5350;42.698;23.148;2022-09-01T00:59:55;93511.38;;;15.41;100.00
10606;BME280;5350;42.698;23.148;2022-09-01T01:02:23;93498.75;;;15.38;100.00
10606;BME280;5350;42.698;23.148;2022-09-01T01:04:50;93500.19;;;15.35;100.00
10606;BME280;5350;42.698;23.148;2022-09-01T01:07:16;93501.41;;;15.38;100.00
10606;BME280;5350;42.698;23.148;2022-09-01T01:09:44;93498.00;;;15.37;100.00
10606;BME280;5350;42.698;23.148;2022-09-01T01:12:11;93493.78;;;15.36;100.00
10606;BME280;5350;42.698;23.148;2022-09-01T01:14:43;93500.66;;;15.37;100.00
10606;BME280;5350;42.698;23.148;2022-09-01T01:17:10;93500.94;;;15.36;100.00
10606;BME280;5350;42.698;23.148;2022-09-01T01:19:39;93498.16;;;15.32;100.00
10606;BME280;5350;42.698;23.148;2022-09-01T01:22:27;93498.50;;;15.31;100.00
10606;BME280;5350;42.698;23.148;2022-09-01T01:25:13;93489.19;;;15.25;100.00
10606;BME280;5350;42.698;23.148;2022-09-01T01:27:43;93509.22;;;15.34;100.00
10606;BME280;5350;42.698;23.148;2022-09-01T01:30:10;93505.22;;;15.28;100.00
10606;BME280;5350;42.698;23.148;2022-09-01T01:32:37;93511.28;;;15.29;100.00
10606;BME280;5350;42.698;23.148;2022-09-01T01:35:07;93511.91;;;15.26;100.00
10606;BME280;5350;42.698;23.148;2022-09-01T01:37:36;93510.97;;;15.30;100.00
10606;BME280;5350;42.698;23.148;2022-09-01T01:40:03;93514.41;;;14.93;100.00
10606;BME280;5350;42.698;23.148;2022-09-01T01:42:32;93517.56;;;14.86;100.00
10606;BME280;5350;42.698;23.148;2022-09-01T01:44:59;93515.03;;;14.90;100.00
10606;BME280;5350;42.698;23.148;2022-09-01T01:47:25;93511.03;;;14.75;100.00
10606;BME280;5350;42.698;23.148;2022-09-01T01:49:52;93519.97;;;14.62;100.00
10606;BME280;5350;42.698;23.148;2022-09-01T01:52:19;93521.84;;;14.62;100.00
10606;BME280;5350;42.698;23.148;2022-09-01T01:54:46;93523.81;;;14.73;100.00
10606;BME280;5350;42.698;23.148;2022-09-01T01:57:13;93521.81;;;14.70;100.00
10606;BME280;5350;42.698;23.148;2022-09-01T01:59:43;93532.53;;;14.82;100.00
10606;BME280;5350;42.698;23.148;2022-09-01T02:02:10;93530.94;;;14.81;100.00
10606;BME280;5350;42.698;23.148;2022-09-01T02:04:37;93536.72;;;14.83;100.00
10606;BME280;5350;42.698;23.148;2022-09-01T02:07:07;93538.28;;;14.84;100.00
10606;BME280;5350;42.698;23.148;2022-09-01T02:09:34;93542.16;;;14.87;100.00
10606;BME280;5350;42.698;23.148;2022-09-01T02:12:03;93547.59;;;14.90;100.00
10606;BME280;5350;42.698;23.148;2022-09-01T02:14:32;93543.09;;;14.91;100.00
10606;BME280;5350;42.698;23.148;2022-09-01T02:17:00;93542.63;;;14.89;100.00
10606;BME280;5350;42.698;23.148;2022-09-01T02:19:31;93540.47;;;14.82;100.00
10606;BME280;5350;42.698;23.148;2022-09-01T02:22:02;93540.00;;;14.80;100.00
10606;BME280;5350;42.698;23.148;2022-09-01T02:24:29;93539.69;;;14.82;100.00
10606;BME280;5350;42.698;23.148;2022-09-01T02:26:56;93541.25;;;14.83;100.00
10606;BME280;5350;42.698;23.148;2022-09-01T02:29:24;93537.50;;;14.84;100.00
10606;BME280;5350;42.698;23.148;2022-09-01T02:31:54;93539.81;;;14.85;100.00
10606;BME280;5350;42.698;23.148;2022-09-01T02:34:22;93530.78;;;14.86;100.00
10606;BME280;5350;42.698;23.148;2022-09-01T02:36:52;93528.59;;;14.88;100.00
10606;BME280;5350;42.698;23.148;2022-09-01T02:39:20;93508.09;;;14.77;100.00
10606;BME280;5350;42.698;23.148;2022-09-01T02:41:47;93529.97;;;14.94;100.00
10606;BME280;5350;42.698;23.148;2022-09-01T02:44:14;93520.75;;;15.00;100.00
10606;BME280;5350;42.698;23.148;2022-09-01T02:46:43;93524.19;;;15.01;100.00
10606;BME280;5350;42.698;23.148;2022-09-01T02:49:10;93525.44;;;15.03;100.00
10606;BME280;5350;42.698;23.148;2022-09-01T02:51:41;93521.41;;;14.97;100.00
10606;BME280;5350;42.698;23.148;2022-09-01T02:54:08;93523.16;;;14.93;100.00
10606;BME280;5350;42.698;23.148;2022-09-01T02:56:35;93518.94;;;14.92;100.00
10606;BME280;5350;42.698;23.148;2022-09-01T02:59:01;93517.38;;;14.91;100.00
10606;BME280;5350;42.698;23.148;2022-09-01T03:01:29;93521.91;;;14.91;100.00
10606;BME280;5350;42.698;23.148;2022-09-01T03:03:56;93521.44;;;14.89;100.00
10606;BME280;5350;42.698;23.148;2022-09-01T03:06:24;93520.97;;;14.87;100.00
10606;BME280;5350;42.698;23.148;2022-09-01T03:08:53;93532.97;;;14.84;100.00
10606;BME280;5350;42.698;23.148;2022-09-01T03:11:20;93522.88;;;14.78;100.00
10606;BME280;5350;42.698;23.148;2022-09-01T03:13:47;93529.28;;;14.77;100.00
10606;BME280;5350;42.698;23.148;2022-09-01T03:16:14;93517.00;;;14.64;100.00
10606;BME280;5350;42.698;23.148;2022-09-01T03:18:41;93532.56;;;14.65;100.00
10606;BME280;5350;42.698;23.148;2022-09-01T03:21:08;93537.84;;;14.65;100.00
10606;BME280;5350;42.698;23.148;2022-09-01T03:23:41;93531.31;;;14.63;100.00
10606;BME280;5350;42.698;23.148;2022-09-01T03:26:09;93531.97;;;14.60;100.00
10606;BME280;5350;42.698;23.148;2022-09-01T03:28:36;93540.03;;;14.63;100.00
10606;BME280;5350;42.698;23.148;2022-09-01T03:31:02;93526.97;;;14.58;100.00
10606;BME280;5350;42.698;23.148;2022-09-01T03:33:29;93527.16;;;14.53;100.00
10606;BME280;5350;42.698;23.148;2022-09-01T03:35:56;93527.47;;;14.52;100.00
10606;BME280;5350;42.698;23.148;2022-09-01T03:38:23;93526.22;;;14.49;100.00
10606;BME280;5350;42.698;23.148;2022-09-01T03:40:52;93526.69;;;14.51;100.00
10606;BME280;5350;42.698;23.148;2022-09-01T03:43:24;93528.88;;;14.49;100.00
10606;BME280;5350;42.698;23.148;2022-09-01T03:45:52;93530.75;;;14.49;100.00
10606;BME280;5350;42.698;23.148;2022-09-01T03:48:20;93528.56;;;14.51;100.00
10606;BME280;5350;42.698;23.148;2022-09-01T03:50:47;93536.03;;;14.49;100.00
10606;BME280;5350;42.698;23.148;2022-09-01T03:53:16;93540.53;;;14.48;100.00
10606;BME280;5350;42.698;23.148;2022-09-01T03:55:44;93533.88;;;14.33;100.00
10606;BME280;5350;42.698;23.148;2022-09-01T03:58:11;93538.69;;;14.40;100.00
10606;BME280;5350;42.698;23.148;2022-09-01T04:00:46;93527.97;;;14.36;100.00
10606;BME280;5350;42.698;23.148;2022-09-01T04:03:13;93524.53;;;14.36;100.00
10606;BME280;5350;42.698;23.148;2022-09-01T04:05:46;93534.31;;;14.44;100.00
10606;BME280;5350;42.698;23.148;2022-09-01T04:08:12;93526.09;;;14.46;100.00
10606;BME280;5350;42.698;23.148;2022-09-01T04:10:41;93526.84;;;14.46;100.00
10606;BME280;5350;42.698;23.148;2022-09-01T04:13:14;93524.19;;;14.46;100.00
10606;BME280;5350;42.698;23.148;2022-09-01T04:15:41;93525.44;;;14.49;100.00
10606;BME280;5350;42.698;23.148;2022-09-01T04:18:09;93500.41;;;14.37;100.00
10606;BME280;5350;42.698;23.148;2022-09-01T04:20:35;93529.81;;;14.53;100.00
10606;BME280;5350;42.698;23.148;2022-09-01T04:23:13;93536.00;;;14.57;100.00
10606;BME280;5350;42.698;23.148;2022-09-01T04:25:41;93529.00;;;14.61;100.00
10606;BME280;5350;42.698;23.148;2022-09-01T04:28:07;93527.56;;;14.72;100.00
10606;BME280;5350;42.698;23.148;2022-09-01T04:30:41;93522.75;;;14.74;100.00
10606;BME280;5350;42.698;23.148;2022-09-01T04:33:09;93526.63;;;14.77;100.00
10606;BME280;5350;42.698;23.148;2022-09-01T04:35:36;93529.88;;;14.82;100.00
10606;BME280;5350;42.698;23.148;2022-09-01T04:38:03;93529.81;;;14.99;100.00
10606;BME280;5350;42.698;23.148;2022-09-01T04:40:32;93528.53;;;15.05;100.00
10606;BME280;5350;42.698;23.148;2022-09-01T04:43:02;93524.78;;;15.06;100.00
10606;BME280;5350;42.698;23.148;2022-09-01T04:45:28;93526.50;;;15.02;100.00
10606;BME280;5350;42.698;23.148;2022-09-01T04:47:55;93517.03;;;15.01;100.00
10606;BME280;5350;42.698;23.148;2022-09-01T04:50:25;93516.84;;;15.06;100.00
10606;BME280;5350;42.698;23.148;2022-09-01T04:52:56;93514.94;;;15.15;100.00
10606;BME280;5350;42.698;23.148;2022-09-01T04:55:24;93520.97;;;15.25;100.00
10606;BME280;5350;42.698;23.148;2022-09-01T04:57:54;93515.16;;;15.31;100.00
10606;BME280;5350;42.698;23.148;2022-09-01T05:00:22;93520.41;;;15.40;100.00
10606;BME280;5350;42.698;23.148;2022-09-01T05:02:49;93517.00;;;15.48;100.00
10606;BME280;5350;42.698;23.148;2022-09-01T05:05:18;93522.38;;;15.60;100.00
10606;BME280;5350;42.698;23.148;2022-09-01T05:07:46;93522.31;;;15.68;100.00
10606;BME280;5350;42.698;23.148;2022-09-01T05:10:16;93524.56;;;15.78;100.00
10606;BME280;5350;42.698;23.148;2022-09-01T05:12:43;93519.78;;;15.92;100.00
10606;BME280;5350;42.698;23.148;2022-09-01T05:15:10;93524.06;;;16.06;100.00
10606;BME280;5350;42.698;23.148;2022-09-01T05:17:38;93521.78;;;16.16;100.00
10606;BME280;5350;42.698;23.148;2022-09-01T05:20:06;93515.09;;;16.31;100.00
10606;BME280;5350;42.698;23.148;2022-09-01T05:22:33;93515.13;;;16.43;100.00
10606;BME280;5350;42.698;23.148;2022-09-01T05:25:01;93525.19;;;16.58;100.00
10606;BME280;5350;42.698;23.148;2022-09-01T05:27:37;93509.16;;;16.66;100.00
10606;BME280;5350;42.698;23.148;2022-09-01T05:30:04;93514.38;;;16.75;100.00
10606;BME280;5350;42.698;23.148;2022-09-01T05:32:32;93511.84;;;16.78;100.00
10606;BME280;5350;42.698;23.148;2022-09-01T05:35:01;93526.72;;;17.04;100.00
10606;BME280;5350;42.698;23.148;2022-09-01T05:37:27;93524.69;;;17.13;100.00
10606;BME280;5350;42.698;23.148;2022-09-01T05:39:54;93526.50;;;17.21;100.00
10606;BME280;5350;42.698;23.148;2022-09-01T05:42:23;93525.03;;;17.23;100.00
10606;BME280;5350;42.698;23.148;2022-09-01T05:44:51;93524.72;;;17.25;100.00
10606;BME280;5350;42.698;23.148;2022-09-01T05:47:18;93526.28;;;17.26;100.00
10606;BME280;5350;42.698;23.148;2022-09-01T05:49:45;93529.94;;;17.33;100.00
10606;BME280;5350;42.698;23.148;2022-09-01T05:52:13;93528.63;;;17.39;100.00
10606;BME280;5350;42.698;23.148;2022-09-01T05:54:40;93521.19;;;17.45;100.00
10606;BME280;5350;42.698;23.148;2022-09-01T05:57:06;93526.63;;;17.61;100.00
10606;BME280;5350;42.698;23.148;2022-09-01T05:59:34;93522.72;;;17.70;100.00
10606;BME280;5350;42.698;23.148;2022-09-01T06:02:05;93517.63;;;17.77;100.00
10606;BME280;5350;42.698;23.148;2022-09-01T06:04:33;93517.16;;;17.87;100.00
10606;BME280;5350;42.698;23.148;2022-09-01T06:07:02;93522.25;;;17.92;100.00
10606;BME280;5350;42.698;23.148;2022-09-01T06:09:32;93519.31;;;18.09;100.00
10606;BME280;5350;42.698;23.148;2022-09-01T06:11:59;93515.75;;;18.17;100.00
10606;BME280;5350;42.698;23.148;2022-09-01T06:14:26;93523.72;;;18.17;100.00
10606;BME280;5350;42.698;23.148;2022-09-01T06:16:54;93517.91;;;18.27;100.00
10606;BME280;5350;42.698;23.148;2022-09-01T06:19:21;93520.00;;;18.34;100.00
10606;BME280;5350;42.698;23.148;2022-09-01T06:21:47;93518.78;;;18.31;100.00
10606;BME280;5350;42.698;23.148;2022-09-01T06:24:14;93523.09;;;18.36;100.00
10606;BME280;5350;42.698;23.148;2022-09-01T06:26:40;93527.69;;;18.35;100.00
10606;BME280;5350;42.698;23.148;2022-09-01T06:29:10;93522.50;;;18.27;100.00
10606;BME280;5350;42.698;23.148;2022-09-01T06:31:39;93525.75;;;18.36;100.00
10606;BME280;5350;42.698;23.148;2022-09-01T06:34:09;93519.69;;;18.35;100.00
10606;BME280;5350;42.698;23.148;2022-09-01T06:36:38;93521.56;;;18.35;100.00
10606;BME280;5350;42.698;23.148;2022-09-01T06:39:07;93516.25;;;18.35;100.00
10606;BME280;5350;42.698;23.148;2022-09-01T06:41:38;93517.47;;;18.38;100.00
10606;BME280;5350;42.698;23.148;2022-09-01T06:44:04;93523.00;;;18.32;100.00
10606;BME280;5350;42.698;23.148;2022-09-01T06:46:31;93520.53;;;18.52;100.00
10606;BME280;5350;42.698;23.148;2022-09-01T06:48:58;93519.22;;;18.46;100.00
10606;BME280;5350;42.698;23.148;2022-09-01T06:51:26;93520.75;;;18.47;100.00
10606;BME280;5350;42.698;23.148;2022-09-01T06:53:53;93520.25;;;18.57;100.00
10606;BME280;5350;42.698;23.148;2022-09-01T06:56:23;93520.97;;;18.69;100.00
10606;BME280;5350;42.698;23.148;2022-09-01T06:58:52;93508.38;;;18.82;100.00
10606;BME280;5350;42.698;23.148;2022-09-01T07:01:19;93518.53;;;18.92;100.00
10606;BME280;5350;42.698;23.148;2022-09-01T07:03:48;93514.94;;;19.00;100.00
10606;BME280;5350;42.698;23.148;2022-09-01T07:06:16;93520.25;;;19.15;100.00
10606;BME280;5350;42.698;23.148;2022-09-01T07:08:45;93522.50;;;19.29;100.00
10606;BME280;5350;42.698;23.148;2022-09-01T07:11:16;93526.50;;;19.35;100.00
10606;BME280;5350;42.698;23.148;2022-09-01T07:13:52;93527.16;;;19.48;100.00
10606;BME280;5350;42.698;23.148;2022-09-01T07:16:19;93525.34;;;19.52;100.00
10606;BME280;5350;42.698;23.148;2022-09-01T07:18:47;93528.94;;;19.75;100.00
10606;BME280;5350;42.698;23.148;2022-09-01T07:21:13;93526.88;;;19.68;100.00
10606;BME280;5350;42.698;23.148;2022-09-01T07:23:40;93527.00;;;19.91;100.00
10606;BME280;5350;42.698;23.148;2022-09-01T07:26:09;93527.41;;;19.93;100.00
10606;BME280;5350;42.698;23.148;2022-09-01T07:28:42;93531.72;;;19.98;100.00
10606;BME280;5350;42.698;23.148;2022-09-01T07:31:15;93530.06;;;20.09;100.00
10606;BME280;5350;42.698;23.148;2022-09-01T07:33:44;93538.28;;;20.19;100.00
10606;BME280;5350;42.698;23.148;2022-09-01T07:36:13;93536.34;;;20.35;100.00
10606;BME280;5350;42.698;23.148;2022-09-01T07:38:39;93530.22;;;20.54;100.00
10606;BME280;5350;42.698;23.148;2022-09-01T07:41:08;93533.09;;;20.64;100.00
10606;BME280;5350;42.698;23.148;2022-09-01T07:43:37;93536.31;;;20.73;100.00
10606;BME280;5350;42.698;23.148;2022-09-01T07:46:06;93537.53;;;20.99;100.00
10606;BME280;5350;42.698;23.148;2022-09-01T07:48:33;93537.75;;;21.09;100.00
10606;BME280;5350;42.698;23.148;2022-09-01T07:50:59;93534.22;;;21.24;100.00
10606;BME280;5350;42.698;23.148;2022-09-01T07:53:27;93539.78;;;21.38;100.00
10606;BME280;5350;42.698;23.148;2022-09-01T07:55:56;93533.41;;;21.46;100.00
10606;BME280;5350;42.698;23.148;2022-09-01T07:58:25;93540.44;;;21.55;100.00
10606;BME280;5350;42.698;23.148;2022-09-01T08:00:52;93541.03;;;21.67;100.00
10606;BME280;5350;42.698;23.148;2022-09-01T08:03:20;93538.91;;;21.80;100.00
10606;BME280;5350;42.698;23.148;2022-09-01T08:05:47;93522.97;;;21.87;100.00
10606;BME280;5350;42.698;23.148;2022-09-01T08:08:18;93533.00;;;22.19;100.00
10606;BME280;5350;42.698;23.148;2022-09-01T08:10:44;93538.88;;;22.32;100.00
10606;BME280;5350;42.698;23.148;2022-09-01T08:13:13;93538.41;;;22.53;100.00
10606;BME280;5350;42.698;23.148;2022-09-01T08:15:41;93539.38;;;22.67;100.00
10606;BME280;5350;42.698;23.148;2022-09-01T08:18:07;93536.47;;;22.83;100.00
10606;BME280;5350;42.698;23.148;2022-09-01T08:20:36;93538.13;;;22.94;100.00
10606;BME280;5350;42.698;23.148;2022-09-01T08:23:04;93539.75;;;23.06;100.00
10606;BME280;5350;42.698;23.148;2022-09-01T08:25:31;93534.41;;;23.10;100.00
10606;BME280;5350;42.698;23.148;2022-09-01T08:27:58;93532.22;;;23.19;100.00
10606;BME280;5350;42.698;23.148;2022-09-01T08:30:24;93525.41;;;23.28;98.87
10606;BME280;5350;42.698;23.148;2022-09-01T08:32:53;93531.75;;;23.46;98.41
10606;BME280;5350;42.698;23.148;2022-09-01T08:35:19;93532.34;;;23.76;100.00
10606;BME280;5350;42.698;23.148;2022-09-01T08:37:46;93529.00;;;23.90;100.00
10606;BME280;5350;42.698;23.148;2022-09-01T08:40:13;93529.06;;;24.01;99.82
10606;BME280;5350;42.698;23.148;2022-09-01T08:42:49;93527.59;;;24.10;98.09
10606;BME280;5350;42.698;23.148;2022-09-01T08:45:19;93525.34;;;24.19;95.37
10606;BME280;5350;42.698;23.148;2022-09-01T08:47:46;93523.44;;;24.20;95.42
10606;BME280;5350;42.698;23.148;2022-09-01T08:50:14;93513.53;;;24.34;93.70
10606;BME280;5350;42.698;23.148;2022-09-01T08:52:45;93508.19;;;24.45;92.24
10606;BME280;5350;42.698;23.148;2022-09-01T08:55:13;93506.28;;;24.45;94.90
10606;BME280;5350;42.698;23.148;2022-09-01T08:57:43;93510.09;;;24.41;95.19
10606;BME280;5350;42.698;23.148;2022-09-01T09:00:11;93504.75;;;24.44;92.80
10606;BME280;5350;42.698;23.148;2022-09-01T09:02:41;93501.72;;;24.56;95.94
10606;BME280;5350;42.698;23.148;2022-09-01T09:05:20;93506.00;;;24.72;90.99
10606;BME280;5350;42.698;23.148;2022-09-01T09:07:53;93504.53;;;24.92;85.60
10606;BME280;5350;42.698;23.148;2022-09-01T09:10:24;93499.19;;;25.02;92.70
10606;BME280;5350;42.698;23.148;2022-09-01T09:12:58;93496.91;;;25.22;91.60
10606;BME280;5350;42.698;23.148;2022-09-01T09:15:31;93492.31;;;25.36;87.66
10606;BME280;5350;42.698;23.148;2022-09-01T09:18:05;93492.72;;;25.42;90.85
10606;BME280;5350;42.698;23.148;2022-09-01T09:20:35;93490.38;;;25.69;88.57
10606;BME280;5350;42.698;23.148;2022-09-01T09:23:03;93491.94;;;25.70;84.06
10606;BME280;5350;42.698;23.148;2022-09-01T09:25:36;93486.53;;;25.84;83.16
10606;BME280;5350;42.698;23.148;2022-09-01T09:28:03;93484.19;;;25.96;78.37
10606;BME280;5350;42.698;23.148;2022-09-01T09:30:29;93482.28;;;25.90;76.17
10606;BME280;5350;42.698;23.148;2022-09-01T09:32:57;93485.72;;;25.97;75.99
10606;BME280;5350;42.698;23.148;2022-09-01T09:35:29;93476.09;;;26.18;76.88
10606;BME280;5350;42.698;23.148;2022-09-01T09:38:13;93470.28;;;26.23;75.59
10606;BME280;5350;42.698;23.148;2022-09-01T09:40:53;93469.13;;;26.24;69.34
10606;BME280;5350;42.698;23.148;2022-09-01T09:43:21;93465.94;;;26.57;69.28
10606;BME280;5350;42.698;23.148;2022-09-01T09:45:48;93473.28;;;26.49;70.20
10606;BME280;5350;42.698;23.148;2022-09-01T09:48:25;93460.09;;;26.65;67.06
10606;BME280;5350;42.698;23.148;2022-09-01T09:50:52;93459.69;;;26.67;69.35
10606;BME280;5350;42.698;23.148;2022-09-01T09:53:26;93453.91;;;26.75;74.56
10606;BME280;5350;42.698;23.148;2022-09-01T09:55:54;93459.94;;;27.01;69.50
10606;BME280;5350;42.698;23.148;2022-09-01T09:58:24;93450.53;;;27.19;67.25
10606;BME280;5350;42.698;23.148;2022-09-01T10:00:58;93443.09;;;27.41;68.11
10606;BME280;5350;42.698;23.148;2022-09-01T10:03:33;93440.22;;;27.58;68.35
10606;BME280;5350;42.698;23.148;2022-09-01T10:06:00;93446.34;;;27.62;69.44
10606;BME280;5350;42.698;23.148;2022-09-01T10:08:38;93447.25;;;27.90;70.17
10606;BME280;5350;42.698;23.148;2022-09-01T10:11:09;93445.19;;;28.08;72.21
10606;BME280;5350;42.698;23.148;2022-09-01T10:13:36;93439.56;;;28.25;64.39
10606;BME280;5350;42.698;23.148;2022-09-01T10:16:04;93439.50;;;28.32;65.11
10606;BME280;5350;42.698;23.148;2022-09-01T10:18:34;93434.75;;;28.40;61.73
10606;BME280;5350;42.698;23.148;2022-09-01T10:23:37;93427.78;;;28.42;64.44
10606;BME280;5350;42.698;23.148;2022-09-01T10:26:09;93428.44;;;28.50;63.25
10606;BME280;5350;42.698;23.148;2022-09-01T10:28:40;93423.34;;;28.59;65.47
10606;BME280;5350;42.698;23.148;2022-09-01T10:31:09;93418.78;;;28.79;61.94
10606;BME280;5350;42.698;23.148;2022-09-01T10:33:36;93412.66;;;28.75;59.64
10606;BME280;5350;42.698;23.148;2022-09-01T10:36:02;93403.25;;;28.87;60.62
10606;BME280;5350;42.698;23.148;2022-09-01T10:38:31;93417.72;;;29.00;59.57
10606;BME280;5350;42.698;23.148;2022-09-01T10:40:59;93419.22;;;29.04;58.72
10606;BME280;5350;42.698;23.148;2022-09-01T10:43:38;93426.97;;;29.02;60.60
10606;BME280;5350;42.698;23.148;2022-09-01T10:48:52;93410.56;;;29.40;58.07
10606;BME280;5350;42.698;23.148;2022-09-01T10:54:04;93406.84;;;29.53;51.54
10606;BME280;5350;42.698;23.148;2022-09-01T10:56:38;93406.34;;;29.12;53.94
10606;BME280;5350;42.698;23.148;2022-09-01T10:59:07;93393.25;;;29.34;53.60
10606;BME280;5350;42.698;23.148;2022-09-01T11:07:28;93391.00;;;29.75;51.87
10606;BME280;5350;42.698;23.148;2022-09-01T11:10:06;93391.59;;;29.86;50.42
10606;BME280;5350;42.698;23.148;2022-09-01T11:12:45;93393.31;;;29.76;51.81
10606;BME280;5350;42.698;23.148;2022-09-01T11:15:31;93385.09;;;29.80;51.33
10606;BME280;5350;42.698;23.148;2022-09-01T11:17:59;93382.97;;;29.91;48.23
10606;BME280;5350;42.698;23.148;2022-09-01T11:20:27;93379.16;;;30.08;47.48
10606;BME280;5350;42.698;23.148;2022-09-01T11:22:58;93373.94;;;30.17;46.30
10606;BME280;5350;42.698;23.148;2022-09-01T11:25:36;93369.66;;;30.39;45.56
10606;BME280;5350;42.698;23.148;2022-09-01T11:28:06;93363.72;;;30.44;49.32
10606;BME280;5350;42.698;23.148;2022-09-01T11:30:39;93349.53;;;30.72;49.96
10606;BME280;5350;42.698;23.148;2022-09-01T11:33:18;93348.16;;;30.64;43.97
10606;BME280;5350;42.698;23.148;2022-09-01T11:35:55;93336.59;;;30.96;46.23
10606;BME280;5350;42.698;23.148;2022-09-01T11:38:23;93331.50;;;31.30;48.59
10606;BME280;5350;42.698;23.148;2022-09-01T11:40:53;93336.41;;;31.51;43.62
10606;BME280;5350;42.698;23.148;2022-09-01T11:43:22;93330.09;;;31.71;40.52
10606;BME280;5350;42.698;23.148;2022-09-01T11:45:51;93339.81;;;31.84;38.88
10606;BME280;5350;42.698;23.148;2022-09-01T11:48:18;93336.53;;;31.77;38.83
10606;BME280;5350;42.698;23.148;2022-09-01T11:50:45;93331.53;;;31.88;40.20
10606;BME280;5350;42.698;23.148;2022-09-01T11:53:22;93334.28;;;32.16;40.39
10606;BME280;5350;42.698;23.148;2022-09-01T11:55:50;93326.13;;;32.16;39.03
10606;BME280;5350;42.698;23.148;2022-09-01T11:58:30;93322.22;;;32.30;37.55
10606;BME280;5350;42.698;23.148;2022-09-01T12:01:10;93316.31;;;32.48;40.58
10606;BME280;5350;42.698;23.148;2022-09-01T12:03:37;93313.91;;;32.75;38.95
10606;BME280;5350;42.698;23.148;2022-09-01T12:06:06;93320.88;;;32.76;37.29
10606;BME280;5350;42.698;23.148;2022-09-01T12:08:34;93315.94;;;32.33;38.56
10606;BME280;5350;42.698;23.148;2022-09-01T12:11:03;93317.56;;;32.30;38.36
10606;BME280;5350;42.698;23.148;2022-09-01T12:13:31;93319.06;;;32.31;40.23
10606;BME280;5350;42.698;23.148;2022-09-01T12:15:59;93313.69;;;32.57;40.69
10606;BME280;5350;42.698;23.148;2022-09-01T12:18:27;93314.34;;;32.73;40.30
10606;BME280;5350;42.698;23.148;2022-09-01T12:20:54;93303.44;;;32.86;36.90
10606;BME280;5350;42.698;23.148;2022-09-01T12:23:23;93304.31;;;33.08;37.65
10606;BME280;5350;42.698;23.148;2022-09-01T12:25:50;93301.78;;;33.14;36.61
10606;BME280;5350;42.698;23.148;2022-09-01T12:28:19;93300.38;;;33.09;35.81
10606;BME280;5350;42.698;23.148;2022-09-01T12:30:49;93303.69;;;32.79;36.25
10606;BME280;5350;42.698;23.148;2022-09-01T12:33:16;93307.16;;;32.67;37.23
10606;BME280;5350;42.698;23.148;2022-09-01T12:35:43;93302.25;;;32.62;38.50
10606;BME280;5350;42.698;23.148;2022-09-01T12:38:23;93305.31;;;32.51;38.72
10606;BME280;5350;42.698;23.148;2022-09-01T12:40:50;93311.41;;;32.01;39.14
10606;BME280;5350;42.698;23.148;2022-09-01T12:43:28;93301.56;;;31.91;39.68
10606;BME280;5350;42.698;23.148;2022-09-01T12:45:56;93298.88;;;31.75;38.84
10606;BME280;5350;42.698;23.148;2022-09-01T12:48:25;93302.91;;;31.99;40.99
10606;BME280;5350;42.698;23.148;2022-09-01T12:50:52;93308.34;;;31.99;39.36
10606;BME280;5350;42.698;23.148;2022-09-01T12:53:24;93307.75;;;32.20;39.78
10606;BME280;5350;42.698;23.148;2022-09-01T12:58:36;93287.28;;;32.28;39.70
10606;BME280;5350;42.698;23.148;2022-09-01T13:01:05;93291.56;;;32.92;39.93
10606;BME280;5350;42.698;23.148;2022-09-01T13:03:32;93283.50;;;33.48;37.55
10606;BME280;5350;42.698;23.148;2022-09-01T13:06:00;93275.63;;;33.84;36.16
10606;BME280;5350;42.698;23.148;2022-09-01T13:08:27;93280.38;;;33.71;37.64
10606;BME280;5350;42.698;23.148;2022-09-01T13:10:55;93269.16;;;33.69;36.53
10606;BME280;5350;42.698;23.148;2022-09-01T13:13:22;93273.28;;;33.74;37.47
10606;BME280;5350;42.698;23.148;2022-09-01T13:15:51;93266.63;;;33.41;35.90
10606;BME280;5350;42.698;23.148;2022-09-01T13:18:19;93272.75;;;33.32;38.05